createdAt,value
2023-05-16T00:04:16.267Z,0.70
2023-05-16T00:17:16.259Z,0.60
2023-05-16T00:30:16.243Z,0.60
2023-05-16T00:43:16.271Z,0.60
2023-05-16T00:56:16.313Z,0.75
2023-05-16T01:09:16.321Z,0.60
2023-05-16T01:22:16.385Z,0.50
2023-05-16T01:35:16.350Z,0.70
2023-05-16T01:48:16.426Z,0.70
2023-05-16T02:01:16.348Z,0.60
2023-05-16T02:14:16.332Z,0.55
2023-05-16T02:27:16.383Z,0.60
2023-05-16T02:40:16.425Z,0.60
2023-05-16T02:53:16.401Z,0.50
2023-05-16T03:06:16.454Z,0.50
2023-05-16T03:19:16.620Z,0.50
2023-05-16T03:32:16.653Z,0.50
2023-05-16T03:45:16.580Z,0.40
2023-05-16T03:58:16.603Z,0.30
2023-05-16T04:11:16.624Z,0.40
2023-05-16T04:24:16.640Z,0.30
2023-05-16T04:37:16.771Z,0.35
2023-05-16T04:50:16.792Z,0.30
2023-05-16T05:03:16.818Z,0.40
2023-05-16T05:16:16.820Z,0.40
2023-05-16T05:29:16.914Z,0.70
2023-05-16T05:42:16.841Z,1.00
2023-05-16T05:55:16.858Z,1.15
2023-05-16T06:08:16.851Z,1.30
2023-05-16T06:21:17.189Z,1.40
2023-05-16T06:34:16.922Z,1.40
2023-05-16T06:47:16.974Z,1.60
2023-05-16T07:00:17.002Z,1.60
2023-05-16T07:13:16.975Z,1.45
2023-05-16T07:26:16.990Z,1.70
2023-05-16T07:39:16.986Z,1.30
2023-05-16T07:52:17.023Z,1.50
2023-05-16T08:05:17.038Z,1.40
2023-05-16T08:18:17.354Z,1.70
2023-05-16T08:31:17.200Z,4.05
2023-05-16T08:44:17.118Z,6.50
2023-05-16T08:57:17.315Z,6.70
2023-05-16T09:10:17.130Z,7.20
2023-05-16T09:23:17.146Z,6.10
2023-05-16T09:36:17.228Z,5.90
2023-05-16T09:49:17.195Z,5.70
2023-05-16T10:02:17.343Z,4.90
2023-05-16T10:15:17.190Z,4.50
2023-05-16T10:28:17.247Z,4.30
2023-05-16T10:41:17.284Z,4.10
2023-05-16T10:54:17.311Z,3.80
2023-05-16T11:07:17.309Z,3.60
2023-05-16T11:20:17.319Z,3.15
2023-05-16T11:33:17.374Z,2.60
2023-05-16T11:46:17.367Z,2.90
2023-05-16T11:59:17.354Z,2.50
2023-05-16T12:12:17.358Z,2.30
2023-05-16T12:25:17.373Z,2.20
2023-05-16T12:38:17.546Z,2.30
2023-05-16T12:51:17.406Z,2.10
2023-05-16T13:04:17.437Z,2.00
2023-05-16T13:17:17.442Z,2.10
2023-05-16T13:30:17.431Z,2.30
2023-05-16T13:43:17.427Z,2.10
2023-05-16T13:56:17.449Z,1.95
2023-05-16T14:09:17.542Z,1.90
2023-05-16T14:22:17.545Z,1.90
2023-05-16T14:35:17.562Z,1.80
2023-05-16T14:48:17.863Z,1.80
2023-05-16T15:01:17.617Z,1.60
2023-05-16T15:14:17.598Z,1.55
2023-05-16T15:27:17.797Z,1.60
2023-05-16T15:40:17.632Z,1.50
2023-05-16T15:53:17.667Z,1.40
2023-05-16T16:06:17.700Z,1.30
2023-05-16T16:19:17.760Z,1.50
2023-05-16T16:32:17.702Z,1.30
2023-05-16T16:45:17.749Z,1.40
2023-05-16T16:58:17.927Z,1.70
2023-05-16T17:11:17.836Z,1.50
2023-05-16T17:24:17.823Z,1.50
2023-05-16T17:37:17.887Z,1.40
2023-05-16T17:50:17.889Z,1.70
2023-05-16T18:03:18.116Z,1.70
2023-05-16T18:16:17.957Z,1.60
2023-05-16T18:29:17.995Z,1.60
2023-05-16T18:42:18.085Z,1.60
2023-05-16T18:55:18.114Z,1.40
2023-05-16T19:08:18.106Z,1.65
2023-05-16T19:21:18.127Z,1.60
2023-05-16T19:34:20.656Z,1.70
2023-05-16T19:47:18.198Z,1.60
2023-05-16T20:00:18.230Z,1.40
2023-05-16T20:13:18.250Z,1.60
2023-05-16T20:26:18.278Z,1.40
2023-05-16T20:39:18.254Z,1.40
2023-05-16T20:52:19.386Z,1.30
2023-05-16T21:05:24.807Z,1.50
2023-05-16T21:18:18.347Z,1.10
2023-05-16T21:31:18.358Z,1.10
2023-05-16T21:44:18.332Z,1.15
2023-05-16T21:57:18.366Z,1.20
2023-05-16T22:10:18.436Z,1.10
2023-05-16T22:23:18.403Z,1.10
2023-05-16T22:36:18.420Z,1.10
2023-05-16T22:49:18.446Z,1.10
2023-05-16T23:02:18.438Z,0.95
2023-05-16T23:15:18.518Z,1.00
2023-05-16T23:28:18.517Z,1.00
2023-05-16T23:41:18.582Z,0.90
2023-05-16T23:54:18.639Z,0.80
